Time;durP1;ratioP1;P1;durP2;ratioP2;P2;SDS_P1;SDS_P2;PMS_P1;PMS_P2;Temp;Humidity;BMP_temperature;BMP_pressure;BME280_temperature;BME280_humidity;BME280_pressure;Samples;Min_cycle;Max_cycle;Signal;HPM_P1;HPM_P2
2023/11/04 00:01:47;;;;;;;;;2.40;2.40;;;;;13.50;100.00;96577.00;6238232;28;96399;-68
2023/11/04 00:04:51;;;;;;;;;1.00;1.00;;;;;13.53;100.00;96579.13;6237034;27;96734;-68
2023/11/04 00:07:54;;;;;;;;;3.33;3.33;;;;;13.55;100.00;96571.50;6237696;28;96888;-68
2023/11/04 00:10:57;;;;;;;;;4.80;4.80;;;;;13.49;100.00;96575.41;6234649;27;96609;-68
2023/11/04 00:14:00;;;;;;;;;2.60;2.60;;;;;13.51;100.00;96574.00;6238144;28;96983;-68
2023/11/04 00:17:05;;;;;;;;;2.00;2.00;;;;;13.56;100.00;96583.94;6237110;28;96729;-68
2023/11/04 00:20:09;;;;;;;;;3.00;3.00;;;;;13.44;100.00;96584.41;6236568;27;98183;-68
2023/11/04 00:23:15;;;;;;;;;2.00;2.00;;;;;13.47;100.00;96594.66;6219379;28;98476;-67
2023/11/04 00:26:18;;;;;;;;;2.00;2.00;;;;;13.38;100.00;96593.72;6237447;28;97472;-68
2023/11/04 00:29:27;;;;;;;;;1.20;1.00;;;;;13.27;100.00;96605.78;6219161;28;97436;-68
2023/11/04 00:32:32;;;;;;;;;1.00;0.80;;;;;13.30;100.00;96603.28;6218125;27;100167;-68
2023/11/04 00:35:55;;;;;;;;;3.00;3.00;;;;;13.29;100.00;96607.09;6207759;28;97350;-68
2023/11/04 00:39:18;;;;;;;;;1.00;1.00;;;;;13.31;100.00;96610.31;6207772;28;97367;-68
2023/11/04 00:42:41;;;;;;;;;1.00;1.00;;;;;13.36;100.00;96615.66;6217724;28;97003;-68
2023/11/04 00:46:04;;;;;;;;;2.40;2.40;;;;;13.44;100.00;96617.69;6212309;28;96707;-68
2023/11/04 00:49:28;;;;;;;;;2.60;2.60;;;;;13.47;100.00;96623.63;6183268;28;98583;-67
2023/11/04 00:52:52;;;;;;;;;2.00;2.00;;;;;13.42;100.00;96630.72;6188324;28;96511;-66
2023/11/04 00:56:15;;;;;;;;;3.00;3.00;;;;;13.40;100.00;96624.78;6184357;28;96488;-66
2023/11/04 00:59:38;;;;;;;;;3.40;3.40;;;;;13.29;100.00;96614.44;6216804;28;96649;-67
2023/11/04 01:03:01;;;;;;;;;2.40;2.40;;;;;13.29;100.00;96628.72;6210327;28;96498;-67
2023/11/04 01:06:25;;;;;;;;;0.75;0.75;;;;;13.20;100.00;96635.09;6219246;28;96890;-66
2023/11/04 01:09:48;;;;;;;;;1.60;1.00;;;;;13.21;100.00;96634.81;6208458;28;96671;-66
2023/11/04 01:13:11;;;;;;;;;2.40;2.40;;;;;13.24;100.00;96636.94;6192233;28;96831;-66
2023/11/04 01:16:34;;;;;;;;;3.00;3.00;;;;;13.19;100.00;96628.09;6209594;28;96450;-66
2023/11/04 01:19:57;;;;;;;;;2.80;2.20;;;;;13.25;100.00;96633.13;6209409;28;97009;-67
2023/11/04 01:23:22;;;;;;;;;1.80;1.80;;;;;13.14;100.00;96633.59;6221974;28;96447;-66
2023/11/04 01:26:45;;;;;;;;;3.00;3.00;;;;;13.10;100.00;96640.63;6187172;28;97021;-66
2023/11/04 01:30:10;;;;;;;;;3.00;3.00;;;;;13.08;100.00;96651.75;6194049;28;97305;-66
2023/11/04 01:33:33;;;;;;;;;3.00;3.00;;;;;13.16;100.00;96642.19;6182278;28;96278;-66
2023/11/04 01:36:56;;;;;;;;;5.50;5.50;;;;;13.08;100.00;96648.25;6198045;28;96863;-67
2023/11/04 01:40:21;;;;;;;;;3.00;3.00;;;;;12.99;100.00;96653.50;6212389;28;96469;-66
2023/11/04 01:43:44;;;;;;;;;2.00;2.00;;;;;13.00;100.00;96655.91;6207843;28;96560;-67
2023/11/04 01:47:07;;;;;;;;;2.75;2.75;;;;;12.98;100.00;96644.59;6186476;28;96434;-67
2023/11/04 01:50:30;;;;;;;;;4.00;4.00;;;;;13.02;100.00;96663.72;6214975;28;96749;-67
2023/11/04 01:53:55;;;;;;;;;2.40;2.40;;;;;13.03;100.00;96666.16;6180572;28;96440;-67
2023/11/04 01:57:20;;;;;;;;;2.00;2.00;;;;;13.06;100.00;96663.94;6203083;28;96364;-65
2023/11/04 02:00:43;;;;;;;;;1.00;1.00;;;;;13.15;100.00;96667.63;6193020;28;96800;-66
2023/11/04 02:04:07;;;;;;;;;3.40;3.40;;;;;13.21;100.00;96674.59;6226039;22;97574;-67
2023/11/04 02:07:30;;;;;;;;;3.00;3.00;;;;;13.15;100.00;96681.16;6199002;28;97029;-68
2023/11/04 02:10:53;;;;;;;;;3.00;3.00;;;;;13.24;100.00;96676.72;6187728;28;96490;-68
2023/11/04 02:14:18;;;;;;;;;2.00;2.00;;;;;13.32;100.00;96682.28;6202817;28;96817;-67
2023/11/04 02:17:41;;;;;;;;;2.20;2.20;;;;;13.32;100.00;96697.72;6203280;28;96714;-68
2023/11/04 02:21:06;;;;;;;;;3.50;3.50;;;;;13.27;100.00;96706.72;6192221;28;96273;-68
2023/11/04 02:24:29;;;;;;;;;1.80;1.80;;;;;13.35;100.00;96721.47;6207108;28;96447;-68
2023/11/04 02:27:52;;;;;;;;;1.20;1.20;;;;;13.34;100.00;96730.72;6195052;28;96657;-68
2023/11/04 02:31:15;;;;;;;;;1.20;1.20;;;;;13.32;100.00;96720.16;6199979;28;96800;-68
2023/11/04 02:34:38;;;;;;;;;3.25;3.25;;;;;13.29;100.00;96720.72;6207577;28;97981;-67
2023/11/04 02:38:03;;;;;;;;;4.20;4.20;;;;;13.28;100.00;96726.44;6199097;28;96263;-68
2023/11/04 02:41:26;;;;;;;;;3.40;3.40;;;;;13.21;100.00;96717.88;6190190;28;96411;-68
2023/11/04 02:44:49;;;;;;;;;2.50;2.50;;;;;13.12;100.00;96722.31;6197993;28;96277;-66
2023/11/04 02:48:12;;;;;;;;;1.00;1.00;;;;;13.10;100.00;96730.69;6187870;28;96429;-67
2023/11/04 02:51:35;;;;;;;;;2.00;2.00;;;;;13.10;100.00;96722.56;6211916;28;96244;-68
2023/11/04 02:55:00;;;;;;;;;3.00;3.00;;;;;13.03;100.00;96716.75;6190747;28;96450;-67
2023/11/04 02:58:23;;;;;;;;;2.20;2.20;;;;;12.95;100.00;96725.50;6190558;28;96481;-67
2023/11/04 03:01:46;;;;;;;;;2.25;2.25;;;;;12.90;100.00;96726.34;6219443;28;96943;-67
2023/11/04 03:05:09;;;;;;;;;4.00;4.00;;;;;12.87;100.00;96745.03;6207133;28;96708;-68
2023/11/04 03:08:32;;;;;;;;;5.00;5.00;;;;;12.91;100.00;96746.06;6191324;28;96242;-65
2023/11/04 03:11:57;;;;;;;;;2.20;2.20;;;;;12.88;100.00;96757.47;6192289;28;96427;-65
2023/11/04 03:15:20;;;;;;;;;5.00;4.00;;;;;12.88;100.00;96749.38;6200411;28;96416;-65
2023/11/04 03:18:43;;;;;;;;;4.00;4.00;;;;;12.95;100.00;96755.25;6200043;28;96257;-66
2023/11/04 03:22:07;;;;;;;;;4.00;4.00;;;;;12.93;100.00;96763.63;6243201;28;96315;-65
2023/11/04 03:25:30;;;;;;;;;2.20;2.20;;;;;12.88;100.00;96781.81;6220793;28;96428;-66
2023/11/04 03:28:54;;;;;;;;;2.60;2.60;;;;;12.82;100.00;96786.47;6202922;28;96434;-65
2023/11/04 03:32:17;;;;;;;;;4.00;4.00;;;;;12.56;100.00;96780.50;6204870;28;96964;-66
2023/11/04 03:35:40;;;;;;;;;2.00;2.00;;;;;12.56;100.00;96809.44;6198659;28;96454;-65
2023/11/04 03:39:04;;;;;;;;;3.40;3.40;;;;;12.51;100.00;96812.22;6188451;28;96453;-66
2023/11/04 03:42:27;;;;;;;;;4.50;4.50;;;;;12.48;100.00;96810.06;6207459;28;96482;-66
2023/11/04 03:45:51;;;;;;;;;3.20;3.20;;;;;12.39;100.00;96815.28;6200416;28;96688;-66
2023/11/04 03:49:14;;;;;;;;;3.60;3.60;;;;;12.43;100.00;96808.22;6202641;28;96264;-67
2023/11/04 03:52:38;;;;;;;;;3.00;3.00;;;;;12.38;100.00;96815.56;6189238;28;96315;-65
2023/11/04 03:56:01;;;;;;;;;3.00;3.00;;;;;12.28;100.00;96826.44;6212944;28;96437;-66
2023/11/04 03:59:24;;;;;;;;;4.00;4.00;;;;;12.34;100.00;96825.31;6193520;28;96425;-65
2023/11/04 04:02:49;;;;;;;;;4.40;4.40;;;;;12.31;100.00;96828.59;6187972;28;99201;-65
2023/11/04 04:06:12;;;;;;;;;4.00;4.00;;;;;12.28;100.00;96821.84;6171332;28;97695;-66
2023/11/04 04:09:35;;;;;;;;;5.00;5.00;;;;;12.28;100.00;96827.25;6178869;28;96547;-65
2023/11/04 04:12:58;;;;;;;;;3.50;3.50;;;;;12.27;100.00;96831.03;6196961;28;98437;-65
2023/11/04 04:16:23;;;;;;;;;4.60;4.60;;;;;12.26;100.00;96831.34;6187217;28;96707;-66
2023/11/04 04:19:48;;;;;;;;;4.40;4.40;;;;;12.28;100.00;96821.84;6179944;28;96537;-65
2023/11/04 04:23:11;;;;;;;;;5.00;5.00;;;;;12.43;100.00;96834.41;6197350;28;96404;-66
2023/11/04 04:26:34;;;;;;;;;6.00;6.00;;;;;12.49;100.00;96836.81;6181432;28;96525;-66
2023/11/04 04:29:57;;;;;;;;;4.40;4.40;;;;;12.47;100.00;96836.28;6186054;28;97017;-66
2023/11/04 04:33:20;;;;;;;;;4.00;4.00;;;;;12.35;100.00;96816.13;6188010;28;96490;-66
2023/11/04 04:36:45;;;;;;;;;5.00;5.00;;;;;12.53;100.00;96850.56;6196298;28;96312;-66
2023/11/04 04:40:09;;;;;;;;;2.80;2.20;;;;;12.57;100.00;96846.19;6210560;28;96346;-67
2023/11/04 04:43:32;;;;;;;;;4.00;4.00;;;;;12.50;100.00;96846.53;6182772;28;96425;-67
2023/11/04 04:46:57;;;;;;;;;5.00;5.00;;;;;12.58;100.00;96851.31;6189617;28;96587;-64
2023/11/04 04:50:20;;;;;;;;;3.75;3.25;;;;;12.63;100.00;96855.06;6195919;28;96654;-66
2023/11/04 04:53:44;;;;;;;;;4.25;4.25;;;;;12.64;100.00;96864.78;6189487;28;97215;-66
2023/11/04 04:57:07;;;;;;;;;4.00;4.00;;;;;12.55;100.00;96865.41;6188122;28;96326;-66
2023/11/04 05:00:30;;;;;;;;;3.00;3.00;;;;;12.46;100.00;96856.28;6188454;28;96422;-66
2023/11/04 05:03:53;;;;;;;;;4.00;4.00;;;;;12.57;100.00;96884.03;6221087;28;96264;-66
2023/11/04 05:07:16;;;;;;;;;4.60;4.60;;;;;12.65;100.00;96886.16;6215475;28;96480;-66
2023/11/04 05:10:41;;;;;;;;;4.40;4.40;;;;;12.61;100.00;96876.97;6188856;28;98304;-66
2023/11/04 05:14:04;;;;;;;;;2.00;2.00;;;;;12.72;100.00;96885.78;6203093;28;96351;-66
2023/11/04 05:17:27;;;;;;;;;3.00;3.00;;;;;12.77;100.00;96886.56;6204206;28;96922;-66
2023/11/04 05:20:50;;;;;;;;;4.00;4.00;;;;;12.84;100.00;96892.47;6212267;28;96904;-66
2023/11/04 05:24:13;;;;;;;;;3.80;3.80;;;;;12.96;100.00;96890.16;6207903;28;96975;-66
2023/11/04 05:27:38;;;;;;;;;1.00;1.00;;;;;13.00;100.00;96895.81;6180178;28;96437;-65
2023/11/04 05:31:01;;;;;;;;;3.40;3.40;;;;;13.09;100.00;96891.41;6190264;28;96538;-65
2023/11/04 05:34:24;;;;;;;;;4.60;4.60;;;;;13.15;100.00;96894.88;6204143;28;96243;-65
2023/11/04 05:37:47;;;;;;;;;5.00;5.00;;;;;13.19;100.00;96899.47;6218808;28;96964;-65
2023/11/04 05:41:10;;;;;;;;;5.00;5.00;;;;;13.28;100.00;96896.91;6203664;28;96437;-65
2023/11/04 05:44:34;;;;;;;;;5.00;5.00;;;;;13.39;100.00;96906.53;6205806;28;96543;-66
2023/11/04 05:47:57;;;;;;;;;3.00;3.00;;;;;13.55;100.00;96901.75;6214420;28;96435;-66
2023/11/04 05:51:25;;;;;;;;;1.00;1.00;;;;;13.84;100.00;96908.69;6203916;28;96303;-65
2023/11/04 05:54:48;;;;;;;;;3.00;2.60;;;;;14.32;100.00;96911.28;6204081;28;97107;-66
2023/11/04 05:58:11;;;;;;;;;5.00;4.00;;;;;15.01;100.00;96898.81;6215778;28;96262;-67
2023/11/04 06:01:36;;;;;;;;;5.25;5.25;;;;;16.15;100.00;96917.78;6206272;28;96192;-67
2023/11/04 06:04:59;;;;;;;;;3.40;3.40;;;;;17.75;100.00;96921.47;6234132;28;98473;-65
2023/11/04 06:08:22;;;;;;;;;6.00;6.00;;;;;19.56;90.87;96927.00;6203895;28;96469;-66
2023/11/04 06:11:45;;;;;;;;;6.00;6.00;;;;;21.18;76.73;96919.66;6206220;28;97779;-67
2023/11/04 06:15:09;;;;;;;;;5.60;5.60;;;;;22.54;65.98;96930.41;6243464;28;98322;-68
2023/11/04 06:18:36;;;;;;;;;4.00;4.00;;;;;23.68;57.07;96929.75;6236419;28;96415;-66
2023/11/04 06:22:00;;;;;;;;;3.00;3.00;;;;;24.67;51.08;96929.38;6228938;28;96508;-66
2023/11/04 06:25:23;;;;;;;;;2.00;2.00;;;;;25.44;45.25;96910.09;6203953;28;96917;-67
2023/11/04 06:28:46;;;;;;;;;2.00;2.00;;;;;26.53;42.54;96921.41;6205216;28;96473;-66
2023/11/04 06:32:09;;;;;;;;;0.20;0.20;;;;;27.18;37.76;96924.63;6181205;28;97559;-67
2023/11/04 06:35:33;;;;;;;;;2.25;2.25;;;;;28.19;36.43;96915.03;6233960;28;96755;-66
2023/11/04 06:38:56;;;;;;;;;0.00;0.00;;;;;27.95;34.52;96923.91;6206906;28;96279;-67
2023/11/04 06:42:26;;;;;;;;;1.00;1.00;;;;;26.69;37.78;96925.56;6219333;28;96429;-66
2023/11/04 06:45:49;;;;;;;;;0.40;0.40;;;;;24.60;44.75;96926.47;6216116;28;96409;-66
2023/11/04 06:49:12;;;;;;;;;0.60;0.60;;;;;22.85;52.90;96920.41;6209274;28;96293;-66
2023/11/04 06:52:37;;;;;;;;;2.00;1.40;;;;;21.02;63.81;96918.66;6218561;28;96710;-67
2023/11/04 06:55:40;;;;;;;;;1.00;1.00;;;;;19.93;73.46;96907.06;6215942;28;96311;-66
2023/11/04 06:58:43;;;;;;;;;1.00;1.00;;;;;19.35;78.84;96905.03;6232054;28;96324;-66
2023/11/04 07:01:49;;;;;;;;;2.00;2.00;;;;;18.78;83.61;96894.34;6231899;28;96236;-67
2023/11/04 07:04:52;;;;;;;;;1.60;1.00;;;;;18.91;84.45;96904.28;6256638;28;96251;-66
2023/11/04 07:07:56;;;;;;;;;3.00;3.00;;;;;19.55;81.82;96895.34;6232447;28;96451;-66
2023/11/04 07:10:59;;;;;;;;;1.00;1.00;;;;;20.02;78.30;96907.00;6242048;28;96484;-66
2023/11/04 07:14:02;;;;;;;;;1.00;0.50;;;;;20.40;74.96;96904.22;6251987;28;98385;-67
2023/11/04 07:17:05;;;;;;;;;0.00;0.00;;;;;20.56;73.67;96914.25;6227149;28;98412;-67
2023/11/04 07:20:10;;;;;;;;;1.33;1.33;;;;;20.37;75.05;96908.44;6230372;28;96726;-67
2023/11/04 07:23:17;;;;;;;;;2.00;2.00;;;;;20.25;76.07;96914.59;6231661;28;96280;-67
2023/11/04 07:26:20;;;;;;;;;1.00;1.00;;;;;20.47;74.36;96910.78;6247080;28;96327;-67
2023/11/04 07:29:23;;;;;;;;;2.40;2.00;;;;;20.47;72.35;96909.97;6207640;28;97367;-67
2023/11/04 07:32:26;;;;;;;;;1.50;1.50;;;;;20.26;73.03;96923.59;6238107;28;96852;-67
2023/11/04 07:35:29;;;;;;;;;1.20;1.20;;;;;20.43;71.94;96920.75;6230406;28;96655;-67
2023/11/04 07:38:34;;;;;;;;;2.00;2.00;;;;;20.77;67.83;96919.69;6226924;28;97374;-67
2023/11/04 07:41:40;;;;;;;;;2.00;2.00;;;;;21.61;63.31;96916.44;6232081;28;96857;-68
2023/11/04 07:44:43;;;;;;;;;1.00;1.00;;;;;21.92;63.77;96918.66;6216231;28;96448;-67
2023/11/04 07:47:47;;;;;;;;;1.60;1.60;;;;;21.74;62.40;96922.75;6212643;28;96664;-67
2023/11/04 07:50:50;;;;;;;;;2.60;2.60;;;;;21.50;63.57;96920.75;6224018;28;96387;-66
2023/11/04 07:53:54;;;;;;;;;1.00;1.00;;;;;20.84;68.37;96925.44;6217095;28;96730;-67
2023/11/04 07:56:57;;;;;;;;;2.00;1.00;;;;;20.24;71.57;96931.31;6235522;28;97144;-67
2023/11/04 08:00:04;;;;;;;;;1.00;1.00;;;;;19.89;74.97;96927.97;6221968;28;96375;-66
2023/11/04 08:03:08;;;;;;;;;1.00;1.00;;;;;19.80;75.81;96930.75;6223510;28;96711;-66
2023/11/04 08:06:11;;;;;;;;;0.40;0.40;;;;;20.29;73.56;96937.41;6206500;28;98872;-66
2023/11/04 08:09:16;;;;;;;;;2.00;2.00;;;;;20.79;69.00;96935.78;6206922;28;96354;-66
2023/11/04 08:12:19;;;;;;;;;2.00;1.00;;;;;21.16;68.08;96937.56;6204725;28;96584;-66
2023/11/04 08:15:22;;;;;;;;;1.00;1.00;;;;;21.42;63.84;96935.38;6204944;28;96985;-66
2023/11/04 08:18:31;;;;;;;;;1.00;1.00;;;;;21.24;67.46;96938.66;6219572;28;96695;-66
2023/11/04 08:21:34;;;;;;;;;1.50;1.00;;;;;20.90;68.58;96931.53;6203979;28;96704;-67
2023/11/04 08:24:39;;;;;;;;;2.00;1.00;;;;;20.80;69.17;96942.88;6220165;28;96662;-67
2023/11/04 08:27:42;;;;;;;;;1.00;1.00;;;;;20.77;70.41;96942.41;6207484;28;96405;-67
2023/11/04 08:30:46;;;;;;;;;2.00;2.00;;;;;20.48;70.93;96944.38;6225801;28;96505;-67
2023/11/04 08:33:50;;;;;;;;;1.00;1.00;;;;;20.50;73.22;96944.88;6213829;28;97044;-67
2023/11/04 08:36:54;;;;;;;;;3.00;3.00;;;;;20.75;69.51;96935.66;6226135;28;96626;-67
2023/11/04 08:39:58;;;;;;;;;2.00;2.00;;;;;21.01;68.59;96929.97;6202844;28;96666;-67
2023/11/04 08:43:01;;;;;;;;;1.00;1.00;;;;;21.04;66.41;96921.88;6206907;28;96589;-67
2023/11/04 08:46:05;;;;;;;;;3.00;2.00;;;;;21.41;67.34;96905.56;6207683;28;96286;-68
2023/11/04 08:49:08;;;;;;;;;1.00;0.40;;;;;21.24;65.01;96916.72;6208853;28;96322;-66
2023/11/04 08:52:12;;;;;;;;;2.00;2.00;;;;;20.79;65.71;96916.63;6225208;28;96541;-65
2023/11/04 08:55:17;;;;;;;;;2.00;2.00;;;;;20.53;70.30;96920.38;6212936;28;96234;-65
2023/11/04 08:58:20;;;;;;;;;1.00;1.00;;;;;20.18;70.77;96916.25;6220922;28;96465;-67
2023/11/04 09:01:24;;;;;;;;;4.00;4.00;;;;;19.88;75.50;96918.19;6182458;28;98722;-66
2023/11/04 09:04:27;;;;;;;;;3.40;3.40;;;;;19.76;76.22;96920.81;6201034;28;97106;-66
2023/11/04 09:07:31;;;;;;;;;4.00;3.00;;;;;19.74;75.40;96915.66;6202509;28;96730;-65
2023/11/04 09:10:35;;;;;;;;;1.00;1.00;;;;;19.78;76.54;96908.41;6194982;28;96845;-66
2023/11/04 09:13:38;;;;;;;;;2.00;2.00;;;;;19.64;75.68;96923.44;6213866;28;96264;-65
2023/11/04 09:16:42;;;;;;;;;1.00;1.00;;;;;19.52;78.42;96915.09;6212578;28;96748;-65
2023/11/04 09:19:45;;;;;;;;;3.50;3.50;;;;;19.37;81.10;96919.16;6200492;28;96767;-66
2023/11/04 09:22:48;;;;;;;;;3.00;3.00;;;;;19.20;81.11;96909.09;6214243;28;96988;-65
2023/11/04 09:25:53;;;;;;;;;3.00;3.00;;;;;19.08;83.65;96905.41;6211809;28;96578;-66
2023/11/04 09:28:56;;;;;;;;;4.00;4.00;;;;;18.97;84.33;96913.13;6173696;28;96871;-67
2023/11/04 09:32:00;;;;;;;;;1.60;1.60;;;;;18.96;82.34;96898.66;6212160;28;96622;-67
2023/11/04 09:35:03;;;;;;;;;2.40;2.00;;;;;19.10;83.50;96916.81;6197592;28;96868;-67
2023/11/04 09:38:06;;;;;;;;;2.00;2.00;;;;;19.03;84.48;96909.09;6213248;28;96281;-66
2023/11/04 09:41:11;;;;;;;;;3.00;2.20;;;;;18.84;85.37;96914.09;6212421;28;98368;-67
2023/11/04 09:44:14;;;;;;;;;3.00;2.00;;;;;18.68;86.50;96904.78;6211355;28;97066;-66
2023/11/04 09:47:17;;;;;;;;;3.20;3.00;;;;;18.60;86.49;96900.97;6194652;28;97772;-67
2023/11/04 09:50:21;;;;;;;;;3.00;3.00;;;;;18.52;85.65;96888.88;6194137;28;96790;-67
2023/11/04 09:53:27;;;;;;;;;3.00;2.00;;;;;18.39;86.18;96891.75;6207661;28;96857;-67
2023/11/04 09:56:32;;;;;;;;;4.00;4.00;;;;;18.36;86.52;96884.22;6194569;28;96787;-66
2023/11/04 09:59:35;;;;;;;;;3.00;3.00;;;;;18.32;85.62;96880.53;6191360;28;96432;-67
2023/11/04 10:02:38;;;;;;;;;2.00;2.00;;;;;18.24;86.35;96879.41;6188475;28;97680;-66
2023/11/04 10:05:41;;;;;;;;;3.50;3.00;;;;;18.26;86.23;96887.28;6206839;28;96232;-66
2023/11/04 10:08:46;;;;;;;;;3.00;3.00;;;;;18.32;85.21;96881.34;6205956;28;98513;-66
2023/11/04 10:11:51;;;;;;;;;2.60;2.60;;;;;18.61;84.31;96883.47;6211806;28;96657;-66
2023/11/04 10:14:54;;;;;;;;;1.00;1.00;;;;;19.24;82.61;96881.91;6210128;28;96707;-67
2023/11/04 10:17:57;;;;;;;;;2.00;2.00;;;;;19.54;80.51;96878.13;6181540;28;98381;-66
2023/11/04 10:21:00;;;;;;;;;3.00;1.00;;;;;20.60;74.38;96876.03;6190002;28;98497;-67
2023/11/04 10:24:04;;;;;;;;;2.00;2.00;;;;;21.48;66.51;96864.69;6209247;28;96748;-67
2023/11/04 10:27:09;;;;;;;;;1.00;1.00;;;;;22.17;59.61;96863.78;6174740;28;99024;-67
2023/11/04 10:30:13;;;;;;;;;2.60;2.00;;;;;22.61;58.18;96857.28;6211956;28;96954;-67
2023/11/04 10:33:20;;;;;;;;;2.00;1.00;;;;;22.56;54.32;96862.22;6207661;28;96888;-67
2023/11/04 10:36:25;;;;;;;;;1.80;1.80;;;;;22.15;58.40;96863.31;6184927;28;96684;-68
2023/11/04 10:39:31;;;;;;;;;2.00;2.00;;;;;21.80;57.16;96850.06;6186621;28;97582;-67
2023/11/04 10:42:44;;;;;;;;;1.00;1.00;;;;;21.53;58.96;96848.81;6215609;28;96414;-67
2023/11/04 10:45:54;;;;;;;;;2.80;2.00;;;;;21.55;61.73;96838.28;6213675;28;96279;-66
2023/11/04 10:49:05;;;;;;;;;2.20;2.20;;;;;21.91;60.72;96850.41;6174929;28;96994;-66
2023/11/04 10:52:12;;;;;;;;;3.00;3.00;;;;;22.25;54.29;96849.94;6210363;28;96379;-67
2023/11/04 10:55:18;;;;;;;;;3.00;2.00;;;;;23.03;54.07;96854.13;6218581;28;96531;-66
2023/11/04 10:58:30;;;;;;;;;2.75;2.75;;;;;23.57;49.04;96846.94;6194975;28;96913;-67
2023/11/04 11:01:35;;;;;;;;;4.00;4.00;;;;;24.59;43.65;96847.72;6204323;28;96647;-67
2023/11/04 11:04:40;;;;;;;;;3.00;2.00;;;;;25.74;41.39;96844.03;6249170;28;96972;-67
2023/11/04 11:07:44;;;;;;;;;3.00;3.00;;;;;27.11;36.31;96852.66;6240786;28;97033;-65
2023/11/04 11:10:53;;;;;;;;;2.75;2.00;;;;;27.89;33.08;96840.38;6245531;28;96286;-66
2023/11/04 11:13:58;;;;;;;;;2.00;2.00;;;;;28.79;32.86;96846.09;6230927;28;96353;-67
2023/11/04 11:17:02;;;;;;;;;1.00;1.00;;;;;29.17;30.64;96832.75;6244269;28;96373;-66
2023/11/04 11:20:27;;;;;;;;;1.00;1.00;;;;;29.38;28.83;96826.47;6245943;28;96353;-66
2023/11/04 11:23:30;;;;;;;;;2.00;1.00;;;;;30.55;28.48;96818.88;6244394;28;96433;-67
2023/11/04 11:26:33;;;;;;;;;3.00;2.00;;;;;31.32;27.03;96814.97;6247226;28;96499;-67
2023/11/04 11:29:45;;;;;;;;;1.00;1.00;;;;;32.48;25.70;96815.16;6237681;28;96376;-67
2023/11/04 11:32:48;;;;;;;;;1.00;1.00;;;;;33.05;24.45;96806.91;6219874;28;97520;-67
2023/11/04 11:35:54;;;;;;;;;2.00;2.00;;;;;33.66;23.66;96806.03;6233020;28;97032;-68
2023/11/04 11:38:57;;;;;;;;;1.00;1.00;;;;;34.15;23.72;96802.44;6238761;28;96180;-67
2023/11/04 11:42:03;;;;;;;;;2.00;2.00;;;;;34.54;23.03;96792.53;6237158;28;97025;-68
2023/11/04 11:45:09;;;;;;;;;2.00;2.00;;;;;34.94;22.34;96777.31;6232784;28;98616;-67
2023/11/04 11:48:13;;;;;;;;;3.00;3.00;;;;;35.15;21.45;96781.63;6230225;28;98824;-68
2023/11/04 11:51:16;;;;;;;;;1.40;1.00;;;;;35.33;21.03;96782.06;6213634;28;96656;-67
2023/11/04 11:54:19;;;;;;;;;1.80;1.80;;;;;34.93;21.29;96766.56;6247405;28;96258;-68
2023/11/04 11:57:22;;;;;;;;;1.00;1.00;;;;;34.34;21.86;96770.94;6247925;28;96276;-68
2023/11/04 12:00:27;;;;;;;;;4.00;4.00;;;;;34.51;22.02;96766.19;6251032;28;96401;-69
2023/11/04 12:03:37;;;;;;;;;2.20;2.00;;;;;34.12;21.40;96764.13;6239696;28;96319;-67
2023/11/04 12:06:42;;;;;;;;;2.00;2.00;;;;;34.13;21.56;96757.31;6239344;28;96170;-67
2023/11/04 12:09:45;;;;;;;;;1.40;1.40;;;;;32.93;22.32;96762.03;6245399;28;97298;-66
2023/11/04 12:12:49;;;;;;;;;1.20;1.20;;;;;31.54;23.99;96747.94;6236623;28;96244;-67
2023/11/04 12:15:54;;;;;;;;;2.00;2.00;;;;;30.82;25.94;96738.50;6237998;28;96501;-67
2023/11/04 12:18:58;;;;;;;;;2.00;2.00;;;;;30.56;26.44;96737.03;6225269;28;96863;-66
2023/11/04 12:22:01;;;;;;;;;1.60;1.00;;;;;30.11;25.40;96731.22;6236635;28;96304;-66
2023/11/04 12:25:06;;;;;;;;;3.00;3.00;;;;;29.26;26.46;96725.72;6238334;28;96349;-67
2023/11/04 12:28:10;;;;;;;;;2.00;2.00;;;;;28.89;27.70;96730.81;6237250;28;97384;-67
2023/11/04 12:31:16;;;;;;;;;3.00;3.00;;;;;28.53;28.37;96740.22;6229209;28;97489;-66
2023/11/04 12:34:23;;;;;;;;;4.60;4.00;;;;;28.34;29.42;96721.94;6227101;28;96296;-66
2023/11/04 12:37:27;;;;;;;;;2.00;2.00;;;;;28.14;28.27;96721.47;6229216;28;99032;-66
2023/11/04 12:40:31;;;;;;;;;1.00;1.00;;;;;28.14;27.95;96712.34;6231773;28;99167;-66
2023/11/04 12:43:36;;;;;;;;;2.00;2.00;;;;;27.51;27.79;96716.31;6188583;28;96808;-66
2023/11/04 12:46:42;;;;;;;;;1.00;1.00;;;;;27.09;30.72;96723.03;6219419;28;96590;-66
2023/11/04 12:49:45;;;;;;;;;2.00;2.00;;;;;26.60;30.11;96719.75;6236411;28;96547;-66
2023/11/04 12:52:50;;;;;;;;;2.40;2.40;;;;;25.87;31.12;96721.19;6206903;28;98886;-66
2023/11/04 12:55:54;;;;;;;;;4.00;3.00;;;;;25.39;33.42;96723.63;6217554;28;96649;-66
2023/11/04 12:58:57;;;;;;;;;3.00;3.00;;;;;25.56;34.43;96727.84;6234325;28;96325;-66
2023/11/04 13:02:02;;;;;;;;;2.00;2.00;;;;;25.46;35.98;96723.72;6234085;28;96331;-66
2023/11/04 13:05:07;;;;;;;;;2.40;2.00;;;;;25.33;33.82;96719.56;6209187;28;98824;-66
2023/11/04 13:08:10;;;;;;;;;2.75;2.75;;;;;25.09;35.50;96719.16;6199177;28;98786;-66
2023/11/04 13:11:13;;;;;;;;;3.00;2.00;;;;;24.70;36.73;96719.25;6217690;28;96333;-66
2023/11/04 13:14:17;;;;;;;;;2.25;2.00;;;;;24.60;36.75;96728.91;6228727;28;98969;-66
2023/11/04 13:17:22;;;;;;;;;2.60;2.60;;;;;24.58;36.94;96733.22;6238984;28;96832;-66
2023/11/04 13:20:26;;;;;;;;;2.40;2.40;;;;;24.29;37.46;96722.81;6216907;28;98889;-67
2023/11/04 13:23:29;;;;;;;;;5.00;4.20;;;;;23.67;37.66;96719.06;6243431;28;96232;-67
2023/11/04 13:26:32;;;;;;;;;4.75;4.75;;;;;23.33;41.83;96728.88;6256647;28;96336;-67
2023/11/04 13:29:35;;;;;;;;;3.00;2.00;;;;;22.93;44.49;96728.25;6233970;28;96267;-67
2023/11/04 13:32:41;;;;;;;;;3.00;3.00;;;;;22.57;47.19;96726.50;6234713;28;96275;-67
2023/11/04 13:35:45;;;;;;;;;3.00;3.00;;;;;22.42;49.99;96717.91;6240217;28;96473;-67
2023/11/04 13:38:48;;;;;;;;;2.60;2.60;;;;;22.14;50.94;96708.84;6217391;28;98351;-68
2023/11/04 13:42:06;;;;;;;;;6.00;6.00;;;;;21.68;53.82;96710.22;6211084;28;96336;-67
2023/11/04 13:45:10;;;;;;;;;3.00;3.00;;;;;21.28;58.14;96704.69;6223256;28;96651;-68
2023/11/04 13:48:16;;;;;;;;;3.80;3.80;;;;;20.65;61.93;96709.63;6235082;28;96271;-67
2023/11/04 13:51:19;;;;;;;;;4.00;3.60;;;;;19.93;66.59;96715.63;6222271;28;97001;-68
2023/11/04 13:54:22;;;;;;;;;4.00;4.00;;;;;19.37;71.14;96712.31;6236359;28;96661;-68
2023/11/04 13:57:25;;;;;;;;;4.40;4.00;;;;;19.18;73.21;96706.47;6212355;28;97514;-66
2023/11/04 14:00:28;;;;;;;;;4.00;4.00;;;;;18.96;75.55;96701.28;6233827;28;97300;-67
2023/11/04 14:03:33;;;;;;;;;3.40;3.00;;;;;18.52;81.61;96706.06;6212576;28;96410;-67
2023/11/04 14:06:37;;;;;;;;;4.00;4.00;;;;;18.40;83.00;96702.41;6223760;28;96469;-66
2023/11/04 14:09:40;;;;;;;;;3.00;3.00;;;;;18.13;86.33;96703.59;6227876;28;96874;-67
2023/11/04 14:12:43;;;;;;;;;6.00;5.00;;;;;17.98;87.11;96691.28;6228894;28;97043;-68
2023/11/04 14:15:46;;;;;;;;;4.00;3.75;;;;;17.88;88.75;96690.81;6229343;28;96486;-66
2023/11/04 14:18:53;;;;;;;;;2.80;2.80;;;;;17.82;91.22;96684.72;6219170;28;97119;-66
2023/11/04 14:21:57;;;;;;;;;6.00;5.00;;;;;17.72;92.24;96688.56;6224817;28;96444;-67
2023/11/04 14:25:00;;;;;;;;;6.75;5.75;;;;;17.65;92.82;96693.66;6213599;28;97495;-67
2023/11/04 14:28:03;;;;;;;;;5.20;5.20;;;;;17.55;94.02;96693.16;6191377;28;97278;-67
2023/11/04 14:31:07;;;;;;;;;5.00;4.00;;;;;17.48;94.88;96690.13;6209916;28;96754;-67
2023/11/04 14:34:11;;;;;;;;;6.00;5.00;;;;;17.42;96.35;96689.47;6223150;28;96868;-67
2023/11/04 14:37:15;;;;;;;;;5.00;4.00;;;;;17.32;98.98;96689.78;6208177;28;96919;-68
2023/11/04 14:40:18;;;;;;;;;6.40;6.00;;;;;17.22;99.64;96682.72;6209887;28;98986;-67
2023/11/04 14:43:21;;;;;;;;;6.00;5.40;;;;;17.12;99.64;96690.38;6220856;28;97124;-66
2023/11/04 14:46:25;;;;;;;;;5.00;4.00;;;;;17.07;99.06;96691.31;6207819;28;98569;-67
2023/11/04 14:49:29;;;;;;;;;4.40;4.40;;;;;17.02;98.52;96691.47;6224187;28;96394;-67
2023/11/04 14:52:32;;;;;;;;;6.00;5.00;;;;;16.93;100.00;96687.13;6214354;28;96342;-67
2023/11/04 14:55:36;;;;;;;;;4.60;4.00;;;;;16.86;100.00;96698.44;6223632;28;97629;-67
2023/11/04 14:58:39;;;;;;;;;5.00;5.00;;;;;16.79;100.00;96695.41;6206567;28;96567;-67